sensor_id;sensor_type;location;lat;lon;timestamp;P1;durP1;ratioP1;P2;durP2;ratioP2
72635;SDS011;60679;48.888;15.544;2023-11-22T00:01:04;2.83;;;0.75;;
72635;SDS011;60679;48.888;15.544;2023-11-22T00:03:30;5.60;;;1.30;;
72635;SDS011;60679;48.888;15.544;2023-11-22T00:05:58;3.38;;;1.27;;
72635;SDS011;60679;48.888;15.544;2023-11-22T00:08:23;3.10;;;0.60;;
72635;SDS011;60679;48.888;15.544;2023-11-22T00:10:49;2.20;;;0.63;;
72635;SDS011;60679;48.888;15.544;2023-11-22T00:13:14;2.50;;;0.83;;
72635;SDS011;60679;48.888;15.544;2023-11-22T00:15:40;2.72;;;0.90;;
72635;SDS011;60679;48.888;15.544;2023-11-22T00:18:05;2.20;;;0.60;;
72635;SDS011;60679;48.888;15.544;2023-11-22T00:20:31;3.53;;;1.03;;
72635;SDS011;60679;48.888;15.544;2023-11-22T00:22:56;2.17;;;0.57;;
72635;SDS011;60679;48.888;15.544;2023-11-22T00:25:22;3.03;;;0.80;;
72635;SDS011;60679;48.888;15.544;2023-11-22T00:27:47;1.93;;;0.40;;
72635;SDS011;60679;48.888;15.544;2023-11-22T00:30:13;2.50;;;0.63;;
72635;SDS011;60679;48.888;15.544;2023-11-22T00:32:42;2.13;;;0.50;;
72635;SDS011;60679;48.888;15.544;2023-11-22T00:35:08;2.23;;;0.60;;
72635;SDS011;60679;48.888;15.544;2023-11-22T00:37:34;2.50;;;0.70;;
72635;SDS011;60679;48.888;15.544;2023-11-22T00:40:00;2.30;;;0.60;;
72635;SDS011;60679;48.888;15.544;2023-11-22T00:42:35;2.42;;;1.00;;
72635;SDS011;60679;48.888;15.544;2023-11-22T00:45:02;2.40;;;0.80;;
72635;SDS011;60679;48.888;15.544;2023-11-22T00:47:30;3.47;;;0.60;;
72635;SDS011;60679;48.888;15.544;2023-11-22T00:49:56;3.30;;;1.63;;
72635;SDS011;60679;48.888;15.544;2023-11-22T00:52:21;2.38;;;0.60;;
72635;SDS011;60679;48.888;15.544;2023-11-22T00:54:47;2.37;;;0.70;;
72635;SDS011;60679;48.888;15.544;2023-11-22T00:57:12;2.60;;;0.90;;
72635;SDS011;60679;48.888;15.544;2023-11-22T00:59:37;2.77;;;0.97;;
72635;SDS011;60679;48.888;15.544;2023-11-22T01:02:03;1.87;;;0.40;;
72635;SDS011;60679;48.888;15.544;2023-11-22T01:04:30;1.80;;;0.30;;
72635;SDS011;60679;48.888;15.544;2023-11-22T01:06:59;2.75;;;0.73;;
72635;SDS011;60679;48.888;15.544;2023-11-22T01:09:24;2.10;;;0.50;;
72635;SDS011;60679;48.888;15.544;2023-11-22T01:11:53;2.37;;;0.57;;
72635;SDS011;60679;48.888;15.544;2023-11-22T01:14:18;2.05;;;0.47;;
72635;SDS011;60679;48.888;15.544;2023-11-22T01:16:43;2.37;;;0.70;;
72635;SDS011;60679;48.888;15.544;2023-11-22T01:19:09;2.40;;;0.70;;
72635;SDS011;60679;48.888;15.544;2023-11-22T01:21:34;2.00;;;0.40;;
72635;SDS011;60679;48.888;15.544;2023-11-22T01:23:59;2.57;;;0.60;;
72635;SDS011;60679;48.888;15.544;2023-11-22T01:26:26;2.33;;;0.60;;
72635;SDS011;60679;48.888;15.544;2023-11-22T01:28:52;1.70;;;0.30;;
72635;SDS011;60679;48.888;15.544;2023-11-22T01:31:17;1.63;;;0.23;;
72635;SDS011;60679;48.888;15.544;2023-11-22T01:33:48;2.20;;;0.50;;
72635;SDS011;60679;48.888;15.544;2023-11-22T01:36:16;3.15;;;0.73;;
72635;SDS011;60679;48.888;15.544;2023-11-22T01:38:41;2.57;;;0.70;;
72635;SDS011;60679;48.888;15.544;2023-11-22T01:41:08;2.53;;;0.90;;
72635;SDS011;60679;48.888;15.544;2023-11-22T01:43:34;1.80;;;0.30;;
72635;SDS011;60679;48.888;15.544;2023-11-22T01:46:00;3.05;;;0.93;;
72635;SDS011;60679;48.888;15.544;2023-11-22T01:48:26;2.20;;;0.50;;
72635;SDS011;60679;48.888;15.544;2023-11-22T01:50:53;2.17;;;0.45;;
72635;SDS011;60679;48.888;15.544;2023-11-22T01:53:18;1.90;;;0.40;;
72635;SDS011;60679;48.888;15.544;2023-11-22T01:55:46;2.63;;;1.02;;
72635;SDS011;60679;48.888;15.544;2023-11-22T01:58:12;2.80;;;1.23;;
72635;SDS011;60679;48.888;15.544;2023-11-22T02:00:58;2.38;;;0.65;;
72635;SDS011;60679;48.888;15.544;2023-11-22T02:03:24;1.93;;;0.33;;
72635;SDS011;60679;48.888;15.544;2023-11-22T02:05:50;2.10;;;0.50;;
72635;SDS011;60679;48.888;15.544;2023-11-22T02:08:18;2.17;;;0.37;;
72635;SDS011;60679;48.888;15.544;2023-11-22T02:10:44;2.78;;;0.68;;
72635;SDS011;60679;48.888;15.544;2023-11-22T02:13:10;3.60;;;1.13;;
72635;SDS011;60679;48.888;15.544;2023-11-22T02:15:36;2.23;;;0.70;;
72635;SDS011;60679;48.888;15.544;2023-11-22T02:18:03;2.42;;;0.55;;
72635;SDS011;60679;48.888;15.544;2023-11-22T02:20:30;3.40;;;0.95;;
72635;SDS011;60679;48.888;15.544;2023-11-22T02:22:56;1.97;;;0.40;;
72635;SDS011;60679;48.888;15.544;2023-11-22T02:25:22;3.10;;;1.13;;
72635;SDS011;60679;48.888;15.544;2023-11-22T02:27:47;2.00;;;0.40;;
72635;SDS011;60679;48.888;15.544;2023-11-22T02:30:13;2.67;;;0.70;;
72635;SDS011;60679;48.888;15.544;2023-11-22T02:32:38;2.05;;;0.52;;
72635;SDS011;60679;48.888;15.544;2023-11-22T02:35:04;2.27;;;0.73;;
72635;SDS011;60679;48.888;15.544;2023-11-22T02:37:32;2.00;;;0.40;;
72635;SDS011;60679;48.888;15.544;2023-11-22T02:40:05;2.45;;;0.57;;
72635;SDS011;60679;48.888;15.544;2023-11-22T02:42:41;1.95;;;0.40;;
72635;SDS011;60679;48.888;15.544;2023-11-22T02:45:06;3.60;;;0.70;;
72635;SDS011;60679;48.888;15.544;2023-11-22T02:47:32;1.80;;;0.32;;
72635;SDS011;60679;48.888;15.544;2023-11-22T02:49:59;2.28;;;0.45;;
72635;SDS011;60679;48.888;15.544;2023-11-22T02:52:24;3.23;;;0.57;;
72635;SDS011;60679;48.888;15.544;2023-11-22T02:54:50;2.60;;;0.50;;
72635;SDS011;60679;48.888;15.544;2023-11-22T02:57:15;2.13;;;0.50;;
72635;SDS011;60679;48.888;15.544;2023-11-22T02:59:42;3.10;;;0.73;;
72635;SDS011;60679;48.888;15.544;2023-11-22T03:02:08;2.17;;;0.60;;
72635;SDS011;60679;48.888;15.544;2023-11-22T03:04:33;2.00;;;0.40;;
72635;SDS011;60679;48.888;15.544;2023-11-22T03:06:59;2.53;;;0.83;;
72635;SDS011;60679;48.888;15.544;2023-11-22T03:09:25;2.38;;;0.60;;
72635;SDS011;60679;48.888;15.544;2023-11-22T03:11:51;2.88;;;0.98;;
72635;SDS011;60679;48.888;15.544;2023-11-22T03:14:19;2.65;;;0.70;;
72635;SDS011;60679;48.888;15.544;2023-11-22T03:16:44;1.80;;;0.30;;
72635;SDS011;60679;48.888;15.544;2023-11-22T03:19:10;2.67;;;0.70;;
72635;SDS011;60679;48.888;15.544;2023-11-22T03:21:38;2.92;;;0.85;;
72635;SDS011;60679;48.888;15.544;2023-11-22T03:24:04;2.10;;;0.40;;
72635;SDS011;60679;48.888;15.544;2023-11-22T03:26:30;1.98;;;0.35;;
72635;SDS011;60679;48.888;15.544;2023-11-22T03:28:56;2.25;;;0.55;;
72635;SDS011;60679;48.888;15.544;2023-11-22T03:31:21;2.33;;;0.53;;
72635;SDS011;60679;48.888;15.544;2023-11-22T03:33:46;2.33;;;0.50;;
72635;SDS011;60679;48.888;15.544;2023-11-22T03:36:12;2.47;;;0.63;;
72635;SDS011;60679;48.888;15.544;2023-11-22T03:38:38;2.03;;;0.35;;
72635;SDS011;60679;48.888;15.544;2023-11-22T03:41:04;2.50;;;0.70;;
72635;SDS011;60679;48.888;15.544;2023-11-22T03:43:30;3.38;;;1.40;;
72635;SDS011;60679;48.888;15.544;2023-11-22T03:45:56;2.23;;;0.43;;
72635;SDS011;60679;48.888;15.544;2023-11-22T03:48:21;3.37;;;1.07;;
72635;SDS011;60679;48.888;15.544;2023-11-22T03:50:48;2.25;;;0.50;;
72635;SDS011;60679;48.888;15.544;2023-11-22T03:53:16;2.20;;;0.50;;
72635;SDS011;60679;48.888;15.544;2023-11-22T03:55:42;2.63;;;0.80;;
72635;SDS011;60679;48.888;15.544;2023-11-22T03:58:07;2.80;;;0.70;;
72635;SDS011;60679;48.888;15.544;2023-11-22T04:00:33;2.20;;;0.40;;
72635;SDS011;60679;48.888;15.544;2023-11-22T04:02:58;2.60;;;0.70;;
72635;SDS011;60679;48.888;15.544;2023-11-22T04:05:26;3.20;;;1.30;;
72635;SDS011;60679;48.888;15.544;2023-11-22T04:07:52;2.90;;;0.90;;
72635;SDS011;60679;48.888;15.544;2023-11-22T04:10:17;2.25;;;0.50;;
72635;SDS011;60679;48.888;15.544;2023-11-22T04:12:44;2.05;;;0.45;;
72635;SDS011;60679;48.888;15.544;2023-11-22T04:15:11;2.30;;;0.50;;
72635;SDS011;60679;48.888;15.544;2023-11-22T04:17:36;3.23;;;0.67;;
72635;SDS011;60679;48.888;15.544;2023-11-22T04:20:03;2.58;;;0.95;;
72635;SDS011;60679;48.888;15.544;2023-11-22T04:22:34;2.05;;;0.45;;
72635;SDS011;60679;48.888;15.544;2023-11-22T04:24:59;3.80;;;1.20;;
72635;SDS011;60679;48.888;15.544;2023-11-22T04:27:26;2.30;;;0.55;;
72635;SDS011;60679;48.888;15.544;2023-11-22T04:29:51;2.37;;;0.67;;
72635;SDS011;60679;48.888;15.544;2023-11-22T04:32:17;3.57;;;0.87;;
72635;SDS011;60679;48.888;15.544;2023-11-22T04:34:42;2.27;;;0.50;;
72635;SDS011;60679;48.888;15.544;2023-11-22T04:37:07;2.00;;;0.50;;
72635;SDS011;60679;48.888;15.544;2023-11-22T04:39:33;2.23;;;0.50;;
72635;SDS011;60679;48.888;15.544;2023-11-22T04:41:59;2.58;;;0.70;;
72635;SDS011;60679;48.888;15.544;2023-11-22T04:44:25;2.50;;;0.77;;
72635;SDS011;60679;48.888;15.544;2023-11-22T04:46:50;2.10;;;0.40;;
72635;SDS011;60679;48.888;15.544;2023-11-22T04:49:16;2.67;;;0.80;;
72635;SDS011;60679;48.888;15.544;2023-11-22T04:51:42;1.90;;;0.38;;
72635;SDS011;60679;48.888;15.544;2023-11-22T04:54:09;1.88;;;0.55;;
72635;SDS011;60679;48.888;15.544;2023-11-22T04:56:34;2.63;;;0.77;;
72635;SDS011;60679;48.888;15.544;2023-11-22T04:59:00;2.27;;;0.70;;
72635;SDS011;60679;48.888;15.544;2023-11-22T05:01:30;2.20;;;0.50;;
72635;SDS011;60679;48.888;15.544;2023-11-22T05:03:56;2.15;;;0.57;;
72635;SDS011;60679;48.888;15.544;2023-11-22T05:06:22;2.77;;;0.70;;
72635;SDS011;60679;48.888;15.544;2023-11-22T05:08:47;2.33;;;0.53;;
72635;SDS011;60679;48.888;15.544;2023-11-22T05:11:12;1.90;;;0.40;;
72635;SDS011;60679;48.888;15.544;2023-11-22T05:13:40;1.85;;;0.30;;
72635;SDS011;60679;48.888;15.544;2023-11-22T05:16:07;2.00;;;0.43;;
72635;SDS011;60679;48.888;15.544;2023-11-22T05:18:33;1.77;;;0.38;;
72635;SDS011;60679;48.888;15.544;2023-11-22T05:20:58;2.40;;;0.67;;
72635;SDS011;60679;48.888;15.544;2023-11-22T05:23:24;2.83;;;0.77;;
72635;SDS011;60679;48.888;15.544;2023-11-22T05:25:50;1.80;;;0.30;;
72635;SDS011;60679;48.888;15.544;2023-11-22T05:28:18;1.90;;;0.40;;
72635;SDS011;60679;48.888;15.544;2023-11-22T05:30:43;2.55;;;0.70;;
72635;SDS011;60679;48.888;15.544;2023-11-22T05:33:09;2.20;;;0.50;;
72635;SDS011;60679;48.888;15.544;2023-11-22T05:35:34;2.23;;;0.53;;
72635;SDS011;60679;48.888;15.544;2023-11-22T05:37:59;1.77;;;0.30;;
72635;SDS011;60679;48.888;15.544;2023-11-22T05:40:25;2.00;;;0.60;;
72635;SDS011;60679;48.888;15.544;2023-11-22T05:42:50;2.15;;;0.47;;
72635;SDS011;60679;48.888;15.544;2023-11-22T05:45:16;1.80;;;0.30;;
72635;SDS011;60679;48.888;15.544;2023-11-22T05:47:41;1.90;;;0.40;;
72635;SDS011;60679;48.888;15.544;2023-11-22T05:50:07;1.92;;;0.40;;
72635;SDS011;60679;48.888;15.544;2023-11-22T05:52:33;2.10;;;0.40;;
72635;SDS011;60679;48.888;15.544;2023-11-22T05:54:59;2.42;;;0.68;;
72635;SDS011;60679;48.888;15.544;2023-11-22T05:57:28;3.72;;;1.27;;
72635;SDS011;60679;48.888;15.544;2023-11-22T05:59:53;1.73;;;0.30;;
72635;SDS011;60679;48.888;15.544;2023-11-22T06:02:19;3.33;;;0.80;;
72635;SDS011;60679;48.888;15.544;2023-11-22T06:04:44;2.43;;;0.60;;
72635;SDS011;60679;48.888;15.544;2023-11-22T06:07:10;2.47;;;0.53;;
72635;SDS011;60679;48.888;15.544;2023-11-22T06:09:35;2.63;;;0.80;;
72635;SDS011;60679;48.888;15.544;2023-11-22T06:12:01;2.08;;;0.52;;
72635;SDS011;60679;48.888;15.544;2023-11-22T06:14:26;1.67;;;0.30;;
72635;SDS011;60679;48.888;15.544;2023-11-22T06:16:52;2.33;;;0.70;;
72635;SDS011;60679;48.888;15.544;2023-11-22T06:19:17;2.30;;;0.55;;
72635;SDS011;60679;48.888;15.544;2023-11-22T06:21:43;3.20;;;1.27;;
72635;SDS011;60679;48.888;15.544;2023-11-22T06:24:08;2.30;;;0.50;;
72635;SDS011;60679;48.888;15.544;2023-11-22T06:26:36;1.60;;;0.20;;
72635;SDS011;60679;48.888;15.544;2023-11-22T06:29:04;2.08;;;0.63;;
72635;SDS011;60679;48.888;15.544;2023-11-22T06:31:30;1.80;;;0.30;;
72635;SDS011;60679;48.888;15.544;2023-11-22T06:33:55;2.50;;;0.60;;
72635;SDS011;60679;48.888;15.544;2023-11-22T06:36:21;4.33;;;0.70;;
72635;SDS011;60679;48.888;15.544;2023-11-22T06:38:46;2.20;;;0.60;;
72635;SDS011;60679;48.888;15.544;2023-11-22T06:41:13;2.38;;;0.60;;
72635;SDS011;60679;48.888;15.544;2023-11-22T06:43:38;2.73;;;0.80;;
72635;SDS011;60679;48.888;15.544;2023-11-22T06:46:04;2.10;;;0.50;;
72635;SDS011;60679;48.888;15.544;2023-11-22T06:48:31;1.95;;;0.40;;
72635;SDS011;60679;48.888;15.544;2023-11-22T06:50:58;1.80;;;0.30;;
72635;SDS011;60679;48.888;15.544;2023-11-22T06:53:23;2.63;;;0.73;;
72635;SDS011;60679;48.888;15.544;2023-11-22T06:55:50;2.13;;;0.57;;
72635;SDS011;60679;48.888;15.544;2023-11-22T06:58:16;2.15;;;0.55;;
72635;SDS011;60679;48.888;15.544;2023-11-22T07:00:43;2.20;;;0.50;;
72635;SDS011;60679;48.888;15.544;2023-11-22T07:03:09;2.47;;;0.73;;
72635;SDS011;60679;48.888;15.544;2023-11-22T07:05:35;2.65;;;0.80;;
72635;SDS011;60679;48.888;15.544;2023-11-22T07:08:01;2.27;;;0.70;;
72635;SDS011;60679;48.888;15.544;2023-11-22T07:10:28;7.53;;;0.88;;
72635;SDS011;60679;48.888;15.544;2023-11-22T07:12:53;2.53;;;0.80;;
72635;SDS011;60679;48.888;15.544;2023-11-22T07:15:19;3.00;;;1.10;;
72635;SDS011;60679;48.888;15.544;2023-11-22T07:17:44;1.83;;;0.40;;
72635;SDS011;60679;48.888;15.544;2023-11-22T07:20:10;2.25;;;0.55;;
72635;SDS011;60679;48.888;15.544;2023-11-22T07:22:41;1.98;;;0.45;;
72635;SDS011;60679;48.888;15.544;2023-11-22T07:25:08;2.42;;;0.82;;
72635;SDS011;60679;48.888;15.544;2023-11-22T07:27:43;3.03;;;0.88;;
72635;SDS011;60679;48.888;15.544;2023-11-22T07:30:10;2.03;;;0.40;;
72635;SDS011;60679;48.888;15.544;2023-11-22T07:32:38;2.90;;;1.20;;
72635;SDS011;60679;48.888;15.544;2023-11-22T07:35:04;1.80;;;0.40;;
72635;SDS011;60679;48.888;15.544;2023-11-22T07:37:37;2.60;;;0.77;;
72635;SDS011;60679;48.888;15.544;2023-11-22T07:40:07;3.28;;;1.15;;
72635;SDS011;60679;48.888;15.544;2023-11-22T07:42:38;2.97;;;1.10;;
72635;SDS011;60679;48.888;15.544;2023-11-22T07:45:03;4.33;;;1.30;;
72635;SDS011;60679;48.888;15.544;2023-11-22T07:47:29;4.13;;;1.35;;
72635;SDS011;60679;48.888;15.544;2023-11-22T07:49:55;2.63;;;0.85;;
72635;SDS011;60679;48.888;15.544;2023-11-22T07:52:23;4.10;;;1.00;;
72635;SDS011;60679;48.888;15.544;2023-11-22T07:54:58;3.88;;;1.35;;
72635;SDS011;60679;48.888;15.544;2023-11-22T07:57:24;3.60;;;1.10;;
72635;SDS011;60679;48.888;15.544;2023-11-22T07:59:50;3.28;;;1.27;;
72635;SDS011;60679;48.888;15.544;2023-11-22T08:02:19;4.40;;;1.13;;
72635;SDS011;60679;48.888;15.544;2023-11-22T08:04:45;3.00;;;1.05;;
72635;SDS011;60679;48.888;15.544;2023-11-22T08:07:12;4.53;;;1.90;;
72635;SDS011;60679;48.888;15.544;2023-11-22T08:09:38;3.70;;;1.45;;
72635;SDS011;60679;48.888;15.544;2023-11-22T08:12:03;2.30;;;0.60;;
72635;SDS011;60679;48.888;15.544;2023-11-22T08:14:29;3.25;;;1.42;;
72635;SDS011;60679;48.888;15.544;2023-11-22T08:16:55;5.97;;;2.30;;
72635;SDS011;60679;48.888;15.544;2023-11-22T08:19:21;3.55;;;1.20;;
72635;SDS011;60679;48.888;15.544;2023-11-22T08:21:49;4.28;;;1.95;;
72635;SDS011;60679;48.888;15.544;2023-11-22T08:24:14;2.95;;;1.38;;
72635;SDS011;60679;48.888;15.544;2023-11-22T08:26:40;12.27;;;4.13;;
72635;SDS011;60679;48.888;15.544;2023-11-22T08:29:05;2.97;;;1.03;;
72635;SDS011;60679;48.888;15.544;2023-11-22T08:31:32;4.78;;;1.58;;
72635;SDS011;60679;48.888;15.544;2023-11-22T08:34:02;3.22;;;1.25;;
72635;SDS011;60679;48.888;15.544;2023-11-22T08:36:31;2.35;;;0.50;;
72635;SDS011;60679;48.888;15.544;2023-11-22T08:38:58;2.77;;;1.00;;
72635;SDS011;60679;48.888;15.544;2023-11-22T08:41:25;2.25;;;0.65;;
72635;SDS011;60679;48.888;15.544;2023-11-22T08:43:52;3.28;;;1.10;;
72635;SDS011;60679;48.888;15.544;2023-11-22T08:46:17;3.33;;;1.57;;
72635;SDS011;60679;48.888;15.544;2023-11-22T08:48:43;4.53;;;1.73;;
72635;SDS011;60679;48.888;15.544;2023-11-22T08:51:09;2.63;;;1.23;;
72635;SDS011;60679;48.888;15.544;2023-11-22T08:53:37;2.85;;;1.30;;
72635;SDS011;60679;48.888;15.544;2023-11-22T08:56:03;3.77;;;1.53;;
72635;SDS011;60679;48.888;15.544;2023-11-22T08:58:31;2.38;;;0.60;;
72635;SDS011;60679;48.888;15.544;2023-11-22T09:00:56;3.35;;;1.25;;
72635;SDS011;60679;48.888;15.544;2023-11-22T09:03:23;3.80;;;1.13;;
72635;SDS011;60679;48.888;15.544;2023-11-22T09:05:49;2.97;;;0.77;;
72635;SDS011;60679;48.888;15.544;2023-11-22T09:08:14;4.65;;;1.52;;
72635;SDS011;60679;48.888;15.544;2023-11-22T09:10:40;2.83;;;0.80;;
72635;SDS011;60679;48.888;15.544;2023-11-22T09:13:07;6.20;;;2.30;;
72635;SDS011;60679;48.888;15.544;2023-11-22T09:15:37;2.35;;;0.65;;
72635;SDS011;60679;48.888;15.544;2023-11-22T09:18:03;2.93;;;0.90;;
72635;SDS011;60679;48.888;15.544;2023-11-22T09:20:29;3.05;;;0.77;;
72635;SDS011;60679;48.888;15.544;2023-11-22T09:22:55;4.10;;;1.30;;
72635;SDS011;60679;48.888;15.544;2023-11-22T09:25:21;7.78;;;1.55;;
72635;SDS011;60679;48.888;15.544;2023-11-22T09:27:48;3.67;;;1.60;;
72635;SDS011;60679;48.888;15.544;2023-11-22T09:30:19;3.72;;;1.33;;
72635;SDS011;60679;48.888;15.544;2023-11-22T09:33:00;5.57;;;1.65;;
72635;SDS011;60679;48.888;15.544;2023-11-22T09:35:29;2.65;;;1.00;;
72635;SDS011;60679;48.888;15.544;2023-11-22T09:37:55;5.00;;;1.77;;
72635;SDS011;60679;48.888;15.544;2023-11-22T09:40:22;3.10;;;1.08;;
72635;SDS011;60679;48.888;15.544;2023-11-22T09:42:48;3.47;;;1.53;;
72635;SDS011;60679;48.888;15.544;2023-11-22T09:45:19;4.18;;;1.75;;
72635;SDS011;60679;48.888;15.544;2023-11-22T09:47:45;5.93;;;1.85;;
72635;SDS011;60679;48.888;15.544;2023-11-22T09:50:17;4.95;;;1.63;;
72635;SDS011;60679;48.888;15.544;2023-11-22T09:52:46;4.78;;;2.30;;
72635;SDS011;60679;48.888;15.544;2023-11-22T09:55:16;3.58;;;0.77;;
72635;SDS011;60679;48.888;15.544;2023-11-22T09:57:43;4.13;;;1.55;;
72635;SDS011;60679;48.888;15.544;2023-11-22T10:00:09;4.07;;;2.08;;
72635;SDS011;60679;48.888;15.544;2023-11-22T10:02:40;6.10;;;2.47;;
72635;SDS011;60679;48.888;15.544;2023-11-22T10:05:06;3.65;;;1.55;;
72635;SDS011;60679;48.888;15.544;2023-11-22T10:07:37;3.47;;;1.25;;
72635;SDS011;60679;48.888;15.544;2023-11-22T10:10:03;4.20;;;1.95;;
72635;SDS011;60679;48.888;15.544;2023-11-22T10:12:30;4.40;;;1.75;;
72635;SDS011;60679;48.888;15.544;2023-11-22T10:15:09;5.63;;;1.47;;
72635;SDS011;60679;48.888;15.544;2023-11-22T10:17:36;3.80;;;1.08;;
72635;SDS011;60679;48.888;15.544;2023-11-22T10:20:01;3.37;;;1.53;;
72635;SDS011;60679;48.888;15.544;2023-11-22T10:22:27;4.38;;;2.13;;
72635;SDS011;60679;48.888;15.544;2023-11-22T10:24:52;4.20;;;1.83;;
72635;SDS011;60679;48.888;15.544;2023-11-22T10:27:20;5.78;;;1.77;;
72635;SDS011;60679;48.888;15.544;2023-11-22T10:29:45;3.03;;;1.33;;
72635;SDS011;60679;48.888;15.544;2023-11-22T10:32:13;2.92;;;1.20;;
72635;SDS011;60679;48.888;15.544;2023-11-22T10:34:38;4.13;;;2.27;;
72635;SDS011;60679;48.888;15.544;2023-11-22T10:37:04;3.80;;;1.60;;
72635;SDS011;60679;48.888;15.544;2023-11-22T10:39:29;5.23;;;2.03;;
72635;SDS011;60679;48.888;15.544;2023-11-22T10:41:58;2.95;;;0.85;;
72635;SDS011;60679;48.888;15.544;2023-11-22T10:44:24;5.03;;;2.80;;
72635;SDS011;60679;48.888;15.544;2023-11-22T10:46:50;6.15;;;1.95;;
72635;SDS011;60679;48.888;15.544;2023-11-22T10:49:17;3.22;;;1.38;;
72635;SDS011;60679;48.888;15.544;2023-11-22T10:51:43;5.22;;;2.55;;
72635;SDS011;60679;48.888;15.544;2023-11-22T10:54:11;3.15;;;1.00;;
72635;SDS011;60679;48.888;15.544;2023-11-22T10:56:40;4.67;;;1.80;;
72635;SDS011;60679;48.888;15.544;2023-11-22T10:59:12;3.90;;;1.63;;
72635;SDS011;60679;48.888;15.544;2023-11-22T11:01:40;4.05;;;1.85;;
72635;SDS011;60679;48.888;15.544;2023-11-22T11:04:11;5.45;;;2.08;;
72635;SDS011;60679;48.888;15.544;2023-11-22T11:06:54;3.30;;;1.30;;
72635;SDS011;60679;48.888;15.544;2023-11-22T11:09:23;6.38;;;1.05;;
72635;SDS011;60679;48.888;15.544;2023-11-22T11:11:57;4.72;;;1.60;;
72635;SDS011;60679;48.888;15.544;2023-11-22T11:14:24;5.47;;;2.45;;
72635;SDS011;60679;48.888;15.544;2023-11-22T11:16:51;7.05;;;2.75;;
72635;SDS011;60679;48.888;15.544;2023-11-22T11:19:19;3.93;;;1.97;;
72635;SDS011;60679;48.888;15.544;2023-11-22T11:21:49;5.20;;;2.20;;
72635;SDS011;60679;48.888;15.544;2023-11-22T11:24:15;2.95;;;1.15;;
72635;SDS011;60679;48.888;15.544;2023-11-22T11:26:40;3.53;;;1.27;;
72635;SDS011;60679;48.888;15.544;2023-11-22T11:29:35;4.07;;;1.97;;
72635;SDS011;60679;48.888;15.544;2023-11-22T11:32:05;6.43;;;3.08;;
72635;SDS011;60679;48.888;15.544;2023-11-22T11:34:45;2.65;;;0.77;;
72635;SDS011;60679;48.888;15.544;2023-11-22T11:37:13;3.42;;;0.98;;
72635;SDS011;60679;48.888;15.544;2023-11-22T11:39:39;9.10;;;3.10;;
72635;SDS011;60679;48.888;15.544;2023-11-22T11:42:09;4.27;;;1.30;;
72635;SDS011;60679;48.888;15.544;2023-11-22T11:44:36;6.68;;;2.58;;
72635;SDS011;60679;48.888;15.544;2023-11-22T11:47:11;6.95;;;2.50;;
72635;SDS011;60679;48.888;15.544;2023-11-22T11:49:37;4.30;;;1.87;;
72635;SDS011;60679;48.888;15.544;2023-11-22T11:52:06;4.18;;;1.88;;
72635;SDS011;60679;48.888;15.544;2023-11-22T11:54:35;4.80;;;1.85;;
72635;SDS011;60679;48.888;15.544;2023-11-22T11:57:00;5.70;;;1.15;;
72635;SDS011;60679;48.888;15.544;2023-11-22T11:59:26;3.33;;;1.40;;
72635;SDS011;60679;48.888;15.544;2023-11-22T12:01:53;4.90;;;2.25;;
72635;SDS011;60679;48.888;15.544;2023-11-22T12:04:22;3.00;;;1.27;;
72635;SDS011;60679;48.888;15.544;2023-11-22T12:06:47;4.37;;;1.57;;
72635;SDS011;60679;48.888;15.544;2023-11-22T12:09:13;3.10;;;1.10;;
72635;SDS011;60679;48.888;15.544;2023-11-22T12:11:38;3.87;;;2.07;;
72635;SDS011;60679;48.888;15.544;2023-11-22T12:14:04;5.53;;;1.47;;
72635;SDS011;60679;48.888;15.544;2023-11-22T12:16:29;3.55;;;1.60;;
72635;SDS011;60679;48.888;15.544;2023-11-22T12:18:55;4.13;;;2.00;;
72635;SDS011;60679;48.888;15.544;2023-11-22T12:21:23;4.43;;;1.23;;
72635;SDS011;60679;48.888;15.544;2023-11-22T12:23:49;4.07;;;1.77;;
72635;SDS011;60679;48.888;15.544;2023-11-22T12:26:15;4.43;;;1.77;;
72635;SDS011;60679;48.888;15.544;2023-11-22T12:28:45;3.10;;;1.23;;
72635;SDS011;60679;48.888;15.544;2023-11-22T12:31:12;3.90;;;1.92;;
72635;SDS011;60679;48.888;15.544;2023-11-22T12:33:40;4.97;;;2.22;;
72635;SDS011;60679;48.888;15.544;2023-11-22T12:36:07;6.35;;;2.50;;
72635;SDS011;60679;48.888;15.544;2023-11-22T12:38:41;2.72;;;0.75;;
72635;SDS011;60679;48.888;15.544;2023-11-22T12:41:07;5.50;;;3.00;;
72635;SDS011;60679;48.888;15.544;2023-11-22T12:43:35;2.53;;;0.75;;
72635;SDS011;60679;48.888;15.544;2023-11-22T12:46:01;5.22;;;2.35;;
72635;SDS011;60679;48.888;15.544;2023-11-22T12:48:40;4.97;;;1.98;;
72635;SDS011;60679;48.888;15.544;2023-11-22T12:51:16;8.98;;;1.85;;
72635;SDS011;60679;48.888;15.544;2023-11-22T12:53:45;3.72;;;1.85;;
72635;SDS011;60679;48.888;15.544;2023-11-22T12:56:15;3.43;;;1.67;;
72635;SDS011;60679;48.888;15.544;2023-11-22T12:58:40;2.92;;;1.17;;
72635;SDS011;60679;48.888;15.544;2023-11-22T13:01:06;4.87;;;2.57;;
72635;SDS011;60679;48.888;15.544;2023-11-22T13:03:31;3.60;;;1.67;;
72635;SDS011;60679;48.888;15.544;2023-11-22T13:05:57;9.03;;;4.43;;
72635;SDS011;60679;48.888;15.544;2023-11-22T13:08:22;4.57;;;1.63;;
72635;SDS011;60679;48.888;15.544;2023-11-22T13:10:50;2.63;;;1.05;;
72635;SDS011;60679;48.888;15.544;2023-11-22T13:13:22;3.22;;;1.13;;
72635;SDS011;60679;48.888;15.544;2023-11-22T13:15:52;6.35;;;3.20;;
72635;SDS011;60679;48.888;15.544;2023-11-22T13:18:17;6.37;;;2.60;;
72635;SDS011;60679;48.888;15.544;2023-11-22T13:20:46;7.13;;;3.17;;
72635;SDS011;60679;48.888;15.544;2023-11-22T13:23:12;7.32;;;2.67;;
72635;SDS011;60679;48.888;15.544;2023-11-22T13:25:39;9.10;;;2.80;;
72635;SDS011;60679;48.888;15.544;2023-11-22T13:28:06;4.70;;;2.10;;
72635;SDS011;60679;48.888;15.544;2023-11-22T13:30:33;3.88;;;1.70;;
72635;SDS011;60679;48.888;15.544;2023-11-22T13:32:59;4.15;;;1.25;;
72635;SDS011;60679;48.888;15.544;2023-11-22T13:35:25;5.90;;;3.07;;
72635;SDS011;60679;48.888;15.544;2023-11-22T13:37:55;5.60;;;2.30;;
72635;SDS011;60679;48.888;15.544;2023-11-22T13:40:22;7.07;;;4.03;;
72635;SDS011;60679;48.888;15.544;2023-11-22T13:42:50;5.83;;;3.00;;
72635;SDS011;60679;48.888;15.544;2023-11-22T13:45:18;6.35;;;3.47;;
72635;SDS011;60679;48.888;15.544;2023-11-22T13:47:45;9.95;;;2.88;;
72635;SDS011;60679;48.888;15.544;2023-11-22T13:50:31;6.80;;;2.63;;
72635;SDS011;60679;48.888;15.544;2023-11-22T13:52:57;10.10;;;3.38;;
72635;SDS011;60679;48.888;15.544;2023-11-22T13:55:23;10.33;;;3.17;;
72635;SDS011;60679;48.888;15.544;2023-11-22T14:00:16;9.25;;;3.70;;
72635;SDS011;60679;48.888;15.544;2023-11-22T14:02:51;5.15;;;2.33;;
72635;SDS011;60679;48.888;15.544;2023-11-22T14:05:17;10.93;;;4.00;;
72635;SDS011;60679;48.888;15.544;2023-11-22T14:07:43;8.02;;;2.90;;
72635;SDS011;60679;48.888;15.544;2023-11-22T14:10:13;4.90;;;2.53;;
72635;SDS011;60679;48.888;15.544;2023-11-22T14:12:41;15.45;;;4.38;;
72635;SDS011;60679;48.888;15.544;2023-11-22T14:15:09;5.40;;;3.20;;
72635;SDS011;60679;48.888;15.544;2023-11-22T14:17:35;5.57;;;2.73;;
72635;SDS011;60679;48.888;15.544;2023-11-22T14:20:03;4.18;;;2.63;;
72635;SDS011;60679;48.888;15.544;2023-11-22T14:22:30;5.38;;;2.80;;
72635;SDS011;60679;48.888;15.544;2023-11-22T14:24:56;7.47;;;2.97;;
72635;SDS011;60679;48.888;15.544;2023-11-22T14:27:25;8.25;;;4.63;;
72635;SDS011;60679;48.888;15.544;2023-11-22T14:29:53;10.47;;;3.57;;
72635;SDS011;60679;48.888;15.544;2023-11-22T14:32:19;3.33;;;1.45;;
72635;SDS011;60679;48.888;15.544;2023-11-22T14:34:48;5.75;;;3.25;;